sensor_id;sensor_type;location;lat;lon;timestamp;P1;durP1;ratioP1;P2;durP2;ratioP2
28904;SDS011;60848;53.884;11.446;2022-10-24T00:01:55;5.63;;;3.35;;
28904;SDS011;60848;53.884;11.446;2022-10-24T00:04:25;6.50;;;3.40;;
28904;SDS011;60848;53.884;11.446;2022-10-24T00:06:54;8.73;;;3.58;;
28904;SDS011;60848;53.884;11.446;2022-10-24T00:09:23;5.72;;;3.20;;
28904;SDS011;60848;53.884;11.446;2022-10-24T00:11:51;5.82;;;3.20;;
28904;SDS011;60848;53.884;11.446;2022-10-24T00:14:19;5.32;;;3.20;;
28904;SDS011;60848;53.884;11.446;2022-10-24T00:16:48;5.82;;;2.88;;
28904;SDS011;60848;53.884;11.446;2022-10-24T00:19:16;4.40;;;2.63;;
28904;SDS011;60848;53.884;11.446;2022-10-24T00:21:45;5.90;;;3.15;;
28904;SDS011;60848;53.884;11.446;2022-10-24T00:24:14;5.57;;;3.05;;
28904;SDS011;60848;53.884;11.446;2022-10-24T00:26:43;4.50;;;2.88;;
28904;SDS011;60848;53.884;11.446;2022-10-24T00:29:11;4.88;;;2.85;;
28904;SDS011;60848;53.884;11.446;2022-10-24T00:31:39;5.78;;;2.83;;
28904;SDS011;60848;53.884;11.446;2022-10-24T00:34:10;6.32;;;3.30;;
28904;SDS011;60848;53.884;11.446;2022-10-24T00:36:38;4.70;;;2.90;;
28904;SDS011;60848;53.884;11.446;2022-10-24T00:39:07;5.35;;;3.22;;
28904;SDS011;60848;53.884;11.446;2022-10-24T00:41:38;7.03;;;3.30;;
28904;SDS011;60848;53.884;11.446;2022-10-24T00:44:12;4.88;;;3.17;;
28904;SDS011;60848;53.884;11.446;2022-10-24T00:46:45;5.72;;;4.03;;
28904;SDS011;60848;53.884;11.446;2022-10-24T00:49:17;6.68;;;3.80;;
28904;SDS011;60848;53.884;11.446;2022-10-24T00:51:51;5.53;;;4.32;;
28904;SDS011;60848;53.884;11.446;2022-10-24T00:54:22;8.30;;;5.22;;
28904;SDS011;60848;53.884;11.446;2022-10-24T00:56:57;10.70;;;6.70;;
28904;SDS011;60848;53.884;11.446;2022-10-24T00:59:33;9.15;;;7.03;;
28904;SDS011;60848;53.884;11.446;2022-10-24T01:02:03;10.25;;;6.35;;
28904;SDS011;60848;53.884;11.446;2022-10-24T01:04:32;12.00;;;6.00;;
28904;SDS011;60848;53.884;11.446;2022-10-24T01:07:02;14.43;;;6.93;;
28904;SDS011;60848;53.884;11.446;2022-10-24T01:12:44;8.13;;;6.15;;
28904;SDS011;60848;53.884;11.446;2022-10-24T01:15:19;8.02;;;6.70;;
28904;SDS011;60848;53.884;11.446;2022-10-24T01:17:56;9.00;;;6.90;;
28904;SDS011;60848;53.884;11.446;2022-10-24T01:20:38;8.98;;;6.47;;
28904;SDS011;60848;53.884;11.446;2022-10-24T01:23:35;10.27;;;6.47;;
28904;SDS011;60848;53.884;11.446;2022-10-24T01:26:30;9.23;;;6.95;;
28904;SDS011;60848;53.884;11.446;2022-10-24T01:29:15;9.45;;;6.75;;
28904;SDS011;60848;53.884;11.446;2022-10-24T01:31:50;10.80;;;7.10;;
28904;SDS011;60848;53.884;11.446;2022-10-24T01:34:24;10.70;;;6.70;;
28904;SDS011;60848;53.884;11.446;2022-10-24T01:36:55;9.48;;;6.75;;
28904;SDS011;60848;53.884;11.446;2022-10-24T01:39:30;8.40;;;6.18;;
28904;SDS011;60848;53.884;11.446;2022-10-24T01:42:07;10.50;;;6.18;;
28904;SDS011;60848;53.884;11.446;2022-10-24T01:44:41;10.23;;;6.47;;
28904;SDS011;60848;53.884;11.446;2022-10-24T01:47:16;10.55;;;6.07;;
28904;SDS011;60848;53.884;11.446;2022-10-24T01:49:48;10.05;;;5.90;;
28904;SDS011;60848;53.884;11.446;2022-10-24T01:52:21;9.45;;;6.85;;
28904;SDS011;60848;53.884;11.446;2022-10-24T01:54:51;9.02;;;6.70;;
28904;SDS011;60848;53.884;11.446;2022-10-24T01:57:25;9.93;;;6.88;;
28904;SDS011;60848;53.884;11.446;2022-10-24T01:59:54;9.85;;;7.70;;
28904;SDS011;60848;53.884;11.446;2022-10-24T02:02:25;12.65;;;7.32;;
28904;SDS011;60848;53.884;11.446;2022-10-24T02:04:57;13.60;;;8.02;;
28904;SDS011;60848;53.884;11.446;2022-10-24T02:07:33;10.82;;;7.43;;
28904;SDS011;60848;53.884;11.446;2022-10-24T02:10:06;12.65;;;8.45;;
28904;SDS011;60848;53.884;11.446;2022-10-24T02:15:06;9.02;;;7.25;;
28904;SDS011;60848;53.884;11.446;2022-10-24T02:17:41;12.70;;;7.63;;
28904;SDS011;60848;53.884;11.446;2022-10-24T02:20:10;9.07;;;7.38;;
28904;SDS011;60848;53.884;11.446;2022-10-24T02:22:41;10.55;;;7.45;;
28904;SDS011;60848;53.884;11.446;2022-10-24T02:25:16;9.18;;;7.05;;
28904;SDS011;60848;53.884;11.446;2022-10-24T02:27:49;9.68;;;7.53;;
28904;SDS011;60848;53.884;11.446;2022-10-24T02:30:23;9.70;;;6.95;;
28904;SDS011;60848;53.884;11.446;2022-10-24T02:32:57;10.80;;;7.45;;
28904;SDS011;60848;53.884;11.446;2022-10-24T02:35:27;10.13;;;7.47;;
28904;SDS011;60848;53.884;11.446;2022-10-24T02:37:59;14.45;;;7.82;;
28904;SDS011;60848;53.884;11.446;2022-10-24T02:40:34;9.38;;;7.30;;
28904;SDS011;60848;53.884;11.446;2022-10-24T02:43:03;11.40;;;6.95;;
28904;SDS011;60848;53.884;11.446;2022-10-24T02:45:33;9.40;;;6.90;;
28904;SDS011;60848;53.884;11.446;2022-10-24T02:48:09;11.05;;;7.60;;
28904;SDS011;60848;53.884;11.446;2022-10-24T02:50:40;10.57;;;7.47;;
28904;SDS011;60848;53.884;11.446;2022-10-24T02:53:11;9.75;;;7.18;;
28904;SDS011;60848;53.884;11.446;2022-10-24T02:55:40;11.55;;;7.60;;
28904;SDS011;60848;53.884;11.446;2022-10-24T02:58:09;9.02;;;6.85;;
28904;SDS011;60848;53.884;11.446;2022-10-24T03:00:37;10.85;;;7.28;;
28904;SDS011;60848;53.884;11.446;2022-10-24T03:03:05;8.75;;;6.90;;
28904;SDS011;60848;53.884;11.446;2022-10-24T03:05:35;10.15;;;7.10;;
28904;SDS011;60848;53.884;11.446;2022-10-24T03:08:04;9.05;;;6.70;;
28904;SDS011;60848;53.884;11.446;2022-10-24T03:10:34;9.43;;;7.20;;
28904;SDS011;60848;53.884;11.446;2022-10-24T03:13:03;9.80;;;6.72;;
28904;SDS011;60848;53.884;11.446;2022-10-24T03:15:31;12.25;;;6.55;;
28904;SDS011;60848;53.884;11.446;2022-10-24T03:18:00;11.15;;;6.85;;
28904;SDS011;60848;53.884;11.446;2022-10-24T03:20:28;12.50;;;6.97;;
28904;SDS011;60848;53.884;11.446;2022-10-24T03:22:57;11.50;;;7.28;;
28904;SDS011;60848;53.884;11.446;2022-10-24T03:25:26;10.20;;;6.43;;
28904;SDS011;60848;53.884;11.446;2022-10-24T03:27:54;9.95;;;6.38;;
28904;SDS011;60848;53.884;11.446;2022-10-24T03:30:22;9.18;;;6.47;;
28904;SDS011;60848;53.884;11.446;2022-10-24T03:32:51;10.40;;;6.35;;
28904;SDS011;60848;53.884;11.446;2022-10-24T03:35:21;8.07;;;5.85;;
28904;SDS011;60848;53.884;11.446;2022-10-24T03:37:50;13.95;;;6.45;;
28904;SDS011;60848;53.884;11.446;2022-10-24T03:40:20;10.20;;;6.63;;
28904;SDS011;60848;53.884;11.446;2022-10-24T03:42:48;8.82;;;5.90;;
28904;SDS011;60848;53.884;11.446;2022-10-24T03:45:16;8.00;;;5.93;;
28904;SDS011;60848;53.884;11.446;2022-10-24T03:47:47;11.38;;;6.20;;
28904;SDS011;60848;53.884;11.446;2022-10-24T03:50:15;10.95;;;7.28;;
28904;SDS011;60848;53.884;11.446;2022-10-24T03:52:43;10.10;;;6.07;;
28904;SDS011;60848;53.884;11.446;2022-10-24T03:55:12;11.07;;;6.32;;
28904;SDS011;60848;53.884;11.446;2022-10-24T03:57:44;9.70;;;5.95;;
28904;SDS011;60848;53.884;11.446;2022-10-24T04:00:13;10.07;;;6.03;;
28904;SDS011;60848;53.884;11.446;2022-10-24T04:02:43;8.02;;;5.65;;
28904;SDS011;60848;53.884;11.446;2022-10-24T04:05:12;7.82;;;5.90;;
28904;SDS011;60848;53.884;11.446;2022-10-24T04:07:41;7.63;;;5.45;;
28904;SDS011;60848;53.884;11.446;2022-10-24T04:10:09;11.63;;;6.15;;
28904;SDS011;60848;53.884;11.446;2022-10-24T04:12:38;8.90;;;5.82;;
28904;SDS011;60848;53.884;11.446;2022-10-24T04:15:08;9.48;;;5.50;;
28904;SDS011;60848;53.884;11.446;2022-10-24T04:17:39;8.60;;;5.97;;
28904;SDS011;60848;53.884;11.446;2022-10-24T04:20:08;10.68;;;6.63;;
28904;SDS011;60848;53.884;11.446;2022-10-24T04:22:37;10.20;;;6.25;;
28904;SDS011;60848;53.884;11.446;2022-10-24T04:25:06;9.10;;;5.82;;
28904;SDS011;60848;53.884;11.446;2022-10-24T04:27:34;10.38;;;6.20;;
28904;SDS011;60848;53.884;11.446;2022-10-24T04:30:08;9.48;;;5.90;;
28904;SDS011;60848;53.884;11.446;2022-10-24T04:32:44;10.10;;;6.78;;
28904;SDS011;60848;53.884;11.446;2022-10-24T04:35:15;8.75;;;6.22;;
28904;SDS011;60848;53.884;11.446;2022-10-24T04:37:43;8.70;;;5.68;;
28904;SDS011;60848;53.884;11.446;2022-10-24T04:40:12;11.63;;;6.30;;
28904;SDS011;60848;53.884;11.446;2022-10-24T04:42:40;9.18;;;6.15;;
28904;SDS011;60848;53.884;11.446;2022-10-24T04:45:11;8.65;;;5.72;;
28904;SDS011;60848;53.884;11.446;2022-10-24T04:47:39;8.98;;;5.80;;
28904;SDS011;60848;53.884;11.446;2022-10-24T04:50:10;7.70;;;5.85;;
28904;SDS011;60848;53.884;11.446;2022-10-24T04:52:38;9.13;;;5.32;;
28904;SDS011;60848;53.884;11.446;2022-10-24T04:55:07;9.23;;;5.97;;
28904;SDS011;60848;53.884;11.446;2022-10-24T04:57:37;12.50;;;6.47;;
28904;SDS011;60848;53.884;11.446;2022-10-24T05:00:06;11.63;;;6.05;;
28904;SDS011;60848;53.884;11.446;2022-10-24T05:02:36;9.05;;;6.07;;
28904;SDS011;60848;53.884;11.446;2022-10-24T05:05:05;10.15;;;5.82;;
28904;SDS011;60848;53.884;11.446;2022-10-24T05:07:34;11.43;;;6.07;;
28904;SDS011;60848;53.884;11.446;2022-10-24T05:10:04;9.38;;;6.38;;
28904;SDS011;60848;53.884;11.446;2022-10-24T05:12:33;9.18;;;5.65;;
28904;SDS011;60848;53.884;11.446;2022-10-24T05:15:02;10.90;;;6.20;;
28904;SDS011;60848;53.884;11.446;2022-10-24T05:17:31;9.30;;;6.25;;
28904;SDS011;60848;53.884;11.446;2022-10-24T05:20:01;13.50;;;6.20;;
28904;SDS011;60848;53.884;11.446;2022-10-24T05:22:30;10.02;;;6.10;;
28904;SDS011;60848;53.884;11.446;2022-10-24T05:24:58;10.88;;;6.10;;
28904;SDS011;60848;53.884;11.446;2022-10-24T05:27:27;11.65;;;6.30;;
28904;SDS011;60848;53.884;11.446;2022-10-24T05:29:57;8.18;;;6.25;;
28904;SDS011;60848;53.884;11.446;2022-10-24T05:32:25;10.35;;;6.00;;
28904;SDS011;60848;53.884;11.446;2022-10-24T05:34:54;11.27;;;6.43;;
28904;SDS011;60848;53.884;11.446;2022-10-24T05:37:24;12.27;;;6.65;;
28904;SDS011;60848;53.884;11.446;2022-10-24T05:39:52;11.07;;;5.95;;
28904;SDS011;60848;53.884;11.446;2022-10-24T05:42:21;11.80;;;6.75;;
28904;SDS011;60848;53.884;11.446;2022-10-24T05:44:49;11.73;;;7.97;;
28904;SDS011;60848;53.884;11.446;2022-10-24T05:47:17;11.05;;;7.50;;
28904;SDS011;60848;53.884;11.446;2022-10-24T05:49:49;12.55;;;8.13;;
28904;SDS011;60848;53.884;11.446;2022-10-24T05:52:17;10.95;;;7.50;;
28904;SDS011;60848;53.884;11.446;2022-10-24T05:54:47;9.80;;;7.07;;
28904;SDS011;60848;53.884;11.446;2022-10-24T05:57:31;11.25;;;7.07;;
28904;SDS011;60848;53.884;11.446;2022-10-24T06:00:00;12.05;;;7.55;;
28904;SDS011;60848;53.884;11.446;2022-10-24T06:02:37;10.70;;;7.60;;
28904;SDS011;60848;53.884;11.446;2022-10-24T06:05:06;10.70;;;7.00;;
28904;SDS011;60848;53.884;11.446;2022-10-24T06:07:36;10.82;;;7.32;;
28904;SDS011;60848;53.884;11.446;2022-10-24T06:10:07;12.45;;;7.05;;
28904;SDS011;60848;53.884;11.446;2022-10-24T06:12:36;10.98;;;7.07;;
28904;SDS011;60848;53.884;11.446;2022-10-24T06:15:05;12.05;;;7.40;;
28904;SDS011;60848;53.884;11.446;2022-10-24T06:17:35;11.13;;;7.35;;
28904;SDS011;60848;53.884;11.446;2022-10-24T06:20:07;10.48;;;7.03;;
28904;SDS011;60848;53.884;11.446;2022-10-24T06:22:36;11.60;;;7.55;;
28904;SDS011;60848;53.884;11.446;2022-10-24T06:25:07;11.77;;;7.00;;
28904;SDS011;60848;53.884;11.446;2022-10-24T06:27:36;9.23;;;6.65;;
28904;SDS011;60848;53.884;11.446;2022-10-24T06:30:05;10.55;;;7.03;;
28904;SDS011;60848;53.884;11.446;2022-10-24T06:32:39;11.95;;;7.10;;
28904;SDS011;60848;53.884;11.446;2022-10-24T06:35:10;9.77;;;6.20;;
28904;SDS011;60848;53.884;11.446;2022-10-24T06:37:40;10.13;;;6.32;;
28904;SDS011;60848;53.884;11.446;2022-10-24T06:40:15;12.50;;;6.32;;
28904;SDS011;60848;53.884;11.446;2022-10-24T06:42:43;11.05;;;6.32;;
28904;SDS011;60848;53.884;11.446;2022-10-24T06:45:12;9.23;;;6.00;;
28904;SDS011;60848;53.884;11.446;2022-10-24T06:47:41;10.03;;;5.90;;
28904;SDS011;60848;53.884;11.446;2022-10-24T06:50:10;10.35;;;5.55;;
28904;SDS011;60848;53.884;11.446;2022-10-24T06:52:39;9.40;;;5.72;;
28904;SDS011;60848;53.884;11.446;2022-10-24T06:55:07;11.20;;;6.22;;
28904;SDS011;60848;53.884;11.446;2022-10-24T06:57:37;9.77;;;5.75;;
28904;SDS011;60848;53.884;11.446;2022-10-24T07:00:06;11.13;;;6.00;;
28904;SDS011;60848;53.884;11.446;2022-10-24T07:02:35;10.57;;;5.87;;
28904;SDS011;60848;53.884;11.446;2022-10-24T07:05:04;10.35;;;6.18;;
28904;SDS011;60848;53.884;11.446;2022-10-24T07:07:34;10.52;;;6.32;;
28904;SDS011;60848;53.884;11.446;2022-10-24T07:10:03;9.87;;;6.23;;
28904;SDS011;60848;53.884;11.446;2022-10-24T07:12:31;10.07;;;6.20;;
28904;SDS011;60848;53.884;11.446;2022-10-24T07:15:01;11.93;;;6.45;;
28904;SDS011;60848;53.884;11.446;2022-10-24T07:17:30;10.57;;;6.23;;
28904;SDS011;60848;53.884;11.446;2022-10-24T07:20:10;9.70;;;5.90;;
28904;SDS011;60848;53.884;11.446;2022-10-24T07:22:40;10.23;;;6.15;;
28904;SDS011;60848;53.884;11.446;2022-10-24T07:25:11;12.40;;;6.05;;
28904;SDS011;60848;53.884;11.446;2022-10-24T07:27:39;10.13;;;4.97;;
28904;SDS011;60848;53.884;11.446;2022-10-24T07:30:12;8.73;;;5.20;;
28904;SDS011;60848;53.884;11.446;2022-10-24T07:32:43;8.27;;;4.68;;
28904;SDS011;60848;53.884;11.446;2022-10-24T07:35:12;12.25;;;4.97;;
28904;SDS011;60848;53.884;11.446;2022-10-24T07:37:40;9.32;;;5.00;;
28904;SDS011;60848;53.884;11.446;2022-10-24T07:40:10;8.45;;;4.63;;
28904;SDS011;60848;53.884;11.446;2022-10-24T07:42:39;7.78;;;5.03;;
28904;SDS011;60848;53.884;11.446;2022-10-24T07:45:08;10.93;;;5.03;;
28904;SDS011;60848;53.884;11.446;2022-10-24T07:47:38;9.67;;;5.23;;
28904;SDS011;60848;53.884;11.446;2022-10-24T07:50:07;11.35;;;5.20;;
28904;SDS011;60848;53.884;11.446;2022-10-24T07:52:36;7.72;;;4.70;;
28904;SDS011;60848;53.884;11.446;2022-10-24T07:55:04;10.23;;;4.78;;
28904;SDS011;60848;53.884;11.446;2022-10-24T07:57:33;9.68;;;4.45;;
28904;SDS011;60848;53.884;11.446;2022-10-24T08:00:01;8.95;;;4.32;;
28904;SDS011;60848;53.884;11.446;2022-10-24T08:02:38;7.93;;;4.00;;
28904;SDS011;60848;53.884;11.446;2022-10-24T08:05:08;8.63;;;4.00;;
28904;SDS011;60848;53.884;11.446;2022-10-24T08:10:10;7.15;;;3.85;;
28904;SDS011;60848;53.884;11.446;2022-10-24T08:15:08;9.20;;;3.83;;
28904;SDS011;60848;53.884;11.446;2022-10-24T08:17:38;9.55;;;4.20;;
28904;SDS011;60848;53.884;11.446;2022-10-24T08:20:07;11.15;;;4.30;;
28904;SDS011;60848;53.884;11.446;2022-10-24T08:22:36;8.73;;;3.80;;
28904;SDS011;60848;53.884;11.446;2022-10-24T08:25:05;7.90;;;3.28;;
28904;SDS011;60848;53.884;11.446;2022-10-24T08:27:35;6.20;;;2.97;;
28904;SDS011;60848;53.884;11.446;2022-10-24T08:30:04;8.63;;;3.42;;
28904;SDS011;60848;53.884;11.446;2022-10-24T08:32:33;8.35;;;3.00;;
28904;SDS011;60848;53.884;11.446;2022-10-24T08:35:07;7.25;;;3.08;;
28904;SDS011;60848;53.884;11.446;2022-10-24T08:40:05;9.18;;;4.10;;
28904;SDS011;60848;53.884;11.446;2022-10-24T08:42:34;9.77;;;4.22;;
28904;SDS011;60848;53.884;11.446;2022-10-24T08:45:03;8.55;;;3.85;;
28904;SDS011;60848;53.884;11.446;2022-10-24T08:50:12;9.63;;;3.15;;
28904;SDS011;60848;53.884;11.446;2022-10-24T08:55:18;5.97;;;2.72;;
28904;SDS011;60848;53.884;11.446;2022-10-24T08:58:11;8.10;;;3.35;;
28904;SDS011;60848;53.884;11.446;2022-10-24T09:00:47;9.43;;;2.97;;
28904;SDS011;60848;53.884;11.446;2022-10-24T09:03:18;8.70;;;2.83;;
28904;SDS011;60848;53.884;11.446;2022-10-24T09:06:15;9.50;;;2.95;;
28904;SDS011;60848;53.884;11.446;2022-10-24T09:08:45;8.77;;;3.10;;
28904;SDS011;60848;53.884;11.446;2022-10-24T09:11:22;6.68;;;2.83;;
28904;SDS011;60848;53.884;11.446;2022-10-24T09:13:55;9.35;;;3.22;;
28904;SDS011;60848;53.884;11.446;2022-10-24T09:16:23;7.47;;;3.33;;
28904;SDS011;60848;53.884;11.446;2022-10-24T09:18:53;7.22;;;3.03;;
28904;SDS011;60848;53.884;11.446;2022-10-24T09:21:24;8.95;;;3.05;;
28904;SDS011;60848;53.884;11.446;2022-10-24T09:23:53;12.48;;;2.95;;
28904;SDS011;60848;53.884;11.446;2022-10-24T09:26:23;7.75;;;3.17;;
28904;SDS011;60848;53.884;11.446;2022-10-24T09:28:54;7.57;;;3.00;;
28904;SDS011;60848;53.884;11.446;2022-10-24T09:31:24;7.88;;;3.00;;
28904;SDS011;60848;53.884;11.446;2022-10-24T09:36:28;7.72;;;2.95;;
28904;SDS011;60848;53.884;11.446;2022-10-24T09:38:57;7.45;;;3.08;;
28904;SDS011;60848;53.884;11.446;2022-10-24T09:41:49;9.20;;;2.72;;
28904;SDS011;60848;53.884;11.446;2022-10-24T09:44:26;6.03;;;2.70;;
28904;SDS011;60848;53.884;11.446;2022-10-24T09:47:01;7.07;;;2.40;;
28904;SDS011;60848;53.884;11.446;2022-10-24T09:49:33;9.75;;;2.75;;
28904;SDS011;60848;53.884;11.446;2022-10-24T09:52:07;13.90;;;2.78;;
28904;SDS011;60848;53.884;11.446;2022-10-24T09:54:44;7.43;;;3.10;;
28904;SDS011;60848;53.884;11.446;2022-10-24T09:57:16;6.60;;;2.80;;
28904;SDS011;60848;53.884;11.446;2022-10-24T09:59:44;8.00;;;2.65;;
28904;SDS011;60848;53.884;11.446;2022-10-24T10:20:27;9.50;;;2.70;;
28904;SDS011;60848;53.884;11.446;2022-10-24T10:23:21;9.20;;;3.08;;
28904;SDS011;60848;53.884;11.446;2022-10-24T10:26:02;6.30;;;2.85;;
28904;SDS011;60848;53.884;11.446;2022-10-24T10:28:41;10.60;;;2.55;;
28904;SDS011;60848;53.884;11.446;2022-10-24T10:31:13;6.95;;;3.00;;
28904;SDS011;60848;53.884;11.446;2022-10-24T10:33:49;8.38;;;3.33;;
28904;SDS011;60848;53.884;11.446;2022-10-24T10:36:34;9.52;;;2.50;;
28904;SDS011;60848;53.884;11.446;2022-10-24T10:39:16;8.68;;;2.95;;
28904;SDS011;60848;53.884;11.446;2022-10-24T10:42:11;6.70;;;2.67;;
28904;SDS011;60848;53.884;11.446;2022-10-24T10:44:50;5.38;;;2.42;;
28904;SDS011;60848;53.884;11.446;2022-10-24T10:47:31;7.03;;;1.92;;
28904;SDS011;60848;53.884;11.446;2022-10-24T10:50:14;8.32;;;2.53;;
28904;SDS011;60848;53.884;11.446;2022-10-24T10:52:54;10.75;;;2.30;;
28904;SDS011;60848;53.884;11.446;2022-10-24T10:55:29;7.70;;;2.20;;
28904;SDS011;60848;53.884;11.446;2022-10-24T10:58:07;6.38;;;2.38;;
28904;SDS011;60848;53.884;11.446;2022-10-24T11:00:48;4.00;;;1.75;;
28904;SDS011;60848;53.884;11.446;2022-10-24T11:03:31;9.15;;;1.80;;
28904;SDS011;60848;53.884;11.446;2022-10-24T11:06:06;10.65;;;2.15;;
28904;SDS011;60848;53.884;11.446;2022-10-24T11:08:49;7.15;;;1.88;;
28904;SDS011;60848;53.884;11.446;2022-10-24T11:11:45;5.10;;;1.65;;
28904;SDS011;60848;53.884;11.446;2022-10-24T11:14:21;4.50;;;1.83;;
28904;SDS011;60848;53.884;11.446;2022-10-24T11:16:56;7.13;;;2.00;;
28904;SDS011;60848;53.884;11.446;2022-10-24T11:19:33;5.05;;;2.00;;
28904;SDS011;60848;53.884;11.446;2022-10-24T11:22:13;7.35;;;1.70;;
28904;SDS011;60848;53.884;11.446;2022-10-24T11:24:46;6.15;;;1.65;;
28904;SDS011;60848;53.884;11.446;2022-10-24T11:27:22;4.65;;;2.00;;
28904;SDS011;60848;53.884;11.446;2022-10-24T11:29:56;7.07;;;1.70;;
28904;SDS011;60848;53.884;11.446;2022-10-24T11:32:32;5.65;;;1.65;;
28904;SDS011;60848;53.884;11.446;2022-10-24T11:35:06;6.85;;;3.22;;
28904;SDS011;60848;53.884;11.446;2022-10-24T11:37:44;5.78;;;1.55;;
28904;SDS011;60848;53.884;11.446;2022-10-24T11:40:17;5.68;;;1.67;;
28904;SDS011;60848;53.884;11.446;2022-10-24T11:42:53;6.43;;;1.83;;
28904;SDS011;60848;53.884;11.446;2022-10-24T11:45:25;6.20;;;1.77;;
28904;SDS011;60848;53.884;11.446;2022-10-24T11:48:02;7.18;;;1.58;;
28904;SDS011;60848;53.884;11.446;2022-10-24T11:50:41;6.83;;;1.93;;
28904;SDS011;60848;53.884;11.446;2022-10-24T11:53:35;8.38;;;2.10;;
28904;SDS011;60848;53.884;11.446;2022-10-24T11:56:12;6.50;;;1.90;;
28904;SDS011;60848;53.884;11.446;2022-10-24T11:58:48;7.75;;;2.00;;
28904;SDS011;60848;53.884;11.446;2022-10-24T12:01:34;6.13;;;2.90;;
28904;SDS011;60848;53.884;11.446;2022-10-24T12:10:28;6.85;;;2.00;;
28904;SDS011;60848;53.884;11.446;2022-10-24T12:13:08;5.80;;;1.90;;
28904;SDS011;60848;53.884;11.446;2022-10-24T12:15:47;9.18;;;2.17;;
28904;SDS011;60848;53.884;11.446;2022-10-24T12:18:25;6.72;;;2.03;;
28904;SDS011;60848;53.884;11.446;2022-10-24T12:20:59;6.50;;;1.80;;
28904;SDS011;60848;53.884;11.446;2022-10-24T12:23:29;5.75;;;1.85;;
28904;SDS011;60848;53.884;11.446;2022-10-24T12:26:02;6.28;;;1.70;;
28904;SDS011;60848;53.884;11.446;2022-10-24T12:28:32;5.63;;;1.30;;
28904;SDS011;60848;53.884;11.446;2022-10-24T12:31:10;4.57;;;1.60;;
28904;SDS011;60848;53.884;11.446;2022-10-24T12:37:34;6.18;;;1.50;;
28904;SDS011;60848;53.884;11.446;2022-10-24T12:43:15;4.90;;;1.30;;
28904;SDS011;60848;53.884;11.446;2022-10-24T12:45:54;6.35;;;1.52;;
28904;SDS011;60848;53.884;11.446;2022-10-24T12:48:33;5.40;;;1.50;;
28904;SDS011;60848;53.884;11.446;2022-10-24T12:51:04;7.50;;;1.63;;
28904;SDS011;60848;53.884;11.446;2022-10-24T12:53:58;5.38;;;1.40;;
28904;SDS011;60848;53.884;11.446;2022-10-24T12:59:53;4.80;;;1.30;;
28904;SDS011;60848;53.884;11.446;2022-10-24T13:02:37;4.82;;;1.20;;
28904;SDS011;60848;53.884;11.446;2022-10-24T13:05:31;5.65;;;1.30;;
28904;SDS011;60848;53.884;11.446;2022-10-24T13:08:15;7.18;;;1.40;;
28904;SDS011;60848;53.884;11.446;2022-10-24T13:11:06;9.18;;;1.38;;
28904;SDS011;60848;53.884;11.446;2022-10-24T13:13:55;5.57;;;1.38;;
28904;SDS011;60848;53.884;11.446;2022-10-24T13:16:43;3.72;;;1.17;;
28904;SDS011;60848;53.884;11.446;2022-10-24T13:19:24;4.75;;;1.30;;
28904;SDS011;60848;53.884;11.446;2022-10-24T13:21:57;6.35;;;1.27;;
28904;SDS011;60848;53.884;11.446;2022-10-24T13:24:33;6.63;;;1.20;;
28904;SDS011;60848;53.884;11.446;2022-10-24T13:27:20;4.88;;;1.10;;
28904;SDS011;60848;53.884;11.446;2022-10-24T13:29:58;4.95;;;1.13;;
28904;SDS011;60848;53.884;11.446;2022-10-24T13:32:44;6.55;;;1.50;;
28904;SDS011;60848;53.884;11.446;2022-10-24T13:35:21;6.55;;;1.50;;
28904;SDS011;60848;53.884;11.446;2022-10-24T13:37:53;5.38;;;1.25;;
28904;SDS011;60848;53.884;11.446;2022-10-24T13:40:27;4.60;;;1.38;;
28904;SDS011;60848;53.884;11.446;2022-10-24T13:42:57;9.68;;;1.23;;
28904;SDS011;60848;53.884;11.446;2022-10-24T13:45:38;4.70;;;1.35;;
28904;SDS011;60848;53.884;11.446;2022-10-24T13:48:14;4.55;;;1.27;;
28904;SDS011;60848;53.884;11.446;2022-10-24T13:50:45;7.03;;;1.60;;
28904;SDS011;60848;53.884;11.446;2022-10-24T13:53:19;4.47;;;1.15;;
28904;SDS011;60848;53.884;11.446;2022-10-24T13:55:58;4.93;;;1.20;;
28904;SDS011;60848;53.884;11.446;2022-10-24T13:58:36;6.60;;;1.30;;
28904;SDS011;60848;53.884;11.446;2022-10-24T14:01:12;4.70;;;1.35;;
28904;SDS011;60848;53.884;11.446;2022-10-24T14:03:44;5.63;;;1.30;;
28904;SDS011;60848;53.884;11.446;2022-10-24T14:06:14;4.45;;;1.20;;
28904;SDS011;60848;53.884;11.446;2022-10-24T14:08:44;4.50;;;1.23;;
28904;SDS011;60848;53.884;11.446;2022-10-24T14:11:31;4.57;;;1.40;;
28904;SDS011;60848;53.884;11.446;2022-10-24T14:14:01;6.35;;;1.67;;
28904;SDS011;60848;53.884;11.446;2022-10-24T14:16:34;6.25;;;2.05;;
28904;SDS011;60848;53.884;11.446;2022-10-24T14:19:09;5.20;;;1.75;;
28904;SDS011;60848;53.884;11.446;2022-10-24T14:21:46;7.63;;;1.55;;
28904;SDS011;60848;53.884;11.446;2022-10-24T14:24:16;6.85;;;1.60;;
28904;SDS011;60848;53.884;11.446;2022-10-24T14:26:47;8.05;;;1.73;;
28904;SDS011;60848;53.884;11.446;2022-10-24T14:29:18;5.18;;;1.52;;
28904;SDS011;60848;53.884;11.446;2022-10-24T14:31:53;7.88;;;1.67;;
28904;SDS011;60848;53.884;11.446;2022-10-24T14:34:25;6.93;;;1.77;;
28904;SDS011;60848;53.884;11.446;2022-10-24T14:37:02;6.13;;;1.88;;
28904;SDS011;60848;53.884;11.446;2022-10-24T14:39:33;5.28;;;1.40;;
28904;SDS011;60848;53.884;11.446;2022-10-24T14:42:05;4.85;;;1.42;;
28904;SDS011;60848;53.884;11.446;2022-10-24T14:44:41;5.30;;;1.30;;
28904;SDS011;60848;53.884;11.446;2022-10-24T15:12:52;4.57;;;1.42;;
28904;SDS011;60848;53.884;11.446;2022-10-24T15:15:28;5.13;;;1.45;;
28904;SDS011;60848;53.884;11.446;2022-10-24T15:18:05;7.28;;;1.58;;
28904;SDS011;60848;53.884;11.446;2022-10-24T15:20:35;6.22;;;1.50;;
28904;SDS011;60848;53.884;11.446;2022-10-24T15:31:02;4.80;;;1.30;;
28904;SDS011;60848;53.884;11.446;2022-10-24T15:33:30;5.35;;;1.50;;
28904;SDS011;60848;53.884;11.446;2022-10-24T15:35:59;4.93;;;1.30;;
28904;SDS011;60848;53.884;11.446;2022-10-24T15:38:31;4.68;;;1.33;;
28904;SDS011;60848;53.884;11.446;2022-10-24T15:48:32;4.28;;;1.27;;
28904;SDS011;60848;53.884;11.446;2022-10-24T15:51:00;6.00;;;1.45;;
28904;SDS011;60848;53.884;11.446;2022-10-24T15:53:33;5.38;;;1.27;;
28904;SDS011;60848;53.884;11.446;2022-10-24T15:56:04;7.57;;;1.60;;
28904;SDS011;60848;53.884;11.446;2022-10-24T15:58:33;21.33;;;14.48;;
28904;SDS011;60848;53.884;11.446;2022-10-24T16:01:02;46.22;;;34.72;;
28904;SDS011;60848;53.884;11.446;2022-10-24T16:03:32;24.83;;;18.92;;
28904;SDS011;60848;53.884;11.446;2022-10-24T16:06:01;6.82;;;2.33;;
28904;SDS011;60848;53.884;11.446;2022-10-24T16:08:30;4.50;;;1.60;;
28904;SDS011;60848;53.884;11.446;2022-10-24T16:11:00;6.85;;;1.58;;
28904;SDS011;60848;53.884;11.446;2022-10-24T16:13:37;6.30;;;1.50;;
28904;SDS011;60848;53.884;11.446;2022-10-24T16:16:05;5.82;;;1.58;;
28904;SDS011;60848;53.884;11.446;2022-10-24T16:18:34;7.38;;;1.40;;
28904;SDS011;60848;53.884;11.446;2022-10-24T16:21:03;5.70;;;1.40;;
28904;SDS011;60848;53.884;11.446;2022-10-24T16:23:33;4.53;;;1.20;;
28904;SDS011;60848;53.884;11.446;2022-10-24T16:26:02;6.65;;;1.52;;
28904;SDS011;60848;53.884;11.446;2022-10-24T16:28:30;5.90;;;1.33;;
28904;SDS011;60848;53.884;11.446;2022-10-24T16:31:02;7.50;;;2.00;;
28904;SDS011;60848;53.884;11.446;2022-10-24T16:33:31;7.00;;;1.57;;
28904;SDS011;60848;53.884;11.446;2022-10-24T16:35:59;5.75;;;1.15;;
28904;SDS011;60848;53.884;11.446;2022-10-24T16:38:28;4.82;;;1.15;;
28904;SDS011;60848;53.884;11.446;2022-10-24T16:40:56;7.70;;;1.40;;